Time;durP1;ratioP1;P1;durP2;ratioP2;P2;SDS_P1;SDS_P2;PMS_P1;PMS_P2;Temp;Humidity;BMP_temperature;BMP_pressure;BME280_temperature;BME280_humidity;BME280_pressure;Samples;Min_cycle;Max_cycle;Signal;HPM_P1;HPM_P2
2022/07/05 00:01:01;;;;;;;5.95;3.30;;;13.80;99.90;;;;;;5072466;28;20045;-65
2022/07/05 00:03:27;;;;;;;5.22;3.20;;;13.80;99.90;;;;;;5073928;28;20374;-64
2022/07/05 00:05:53;;;;;;;6.28;3.08;;;13.80;99.90;;;;;;5072233;28;20052;-65
2022/07/05 00:08:19;;;;;;;6.57;4.00;;;13.80;99.90;;;;;;5073784;28;20048;-64
2022/07/05 00:10:45;;;;;;;7.43;3.42;;;13.80;99.90;;;;;;5074787;28;20028;-65
2022/07/05 00:13:11;;;;;;;6.50;3.90;;;13.70;99.90;;;;;;5072705;28;20108;-64
2022/07/05 00:15:36;;;;;;;6.03;3.53;;;13.70;99.90;;;;;;5074847;28;20115;-65
2022/07/05 00:18:02;;;;;;;8.18;4.78;;;13.70;99.90;;;;;;5072976;28;20115;-64
2022/07/05 00:20:28;;;;;;;7.85;4.20;;;13.70;99.90;;;;;;5073632;28;20135;-64
2022/07/05 00:22:54;;;;;;;9.00;3.92;;;13.60;99.90;;;;;;5072826;28;20363;-64
2022/07/05 00:25:19;;;;;;;10.75;5.03;;;13.60;99.90;;;;;;5073438;28;20040;-65
2022/07/05 00:27:45;;;;;;;11.20;4.47;;;13.60;99.90;;;;;;5073536;28;20117;-64
2022/07/05 00:30:12;;;;;;;7.07;3.90;;;13.60;99.90;;;;;;5074250;28;20037;-64
2022/07/05 00:32:37;;;;;;;7.05;4.15;;;13.50;99.90;;;;;;5073729;28;20432;-65
2022/07/05 00:35:07;;;;;;;8.02;4.15;;;13.60;99.90;;;;;;5071716;28;20044;-64
2022/07/05 00:37:33;;;;;;;6.75;4.28;;;13.60;99.90;;;;;;5073241;28;20051;-64
2022/07/05 00:39:58;;;;;;;7.50;3.90;;;13.60;99.90;;;;;;5072619;28;20456;-64
2022/07/05 00:42:24;;;;;;;6.95;4.60;;;13.60;99.90;;;;;;5072202;28;20044;-64
2022/07/05 00:44:50;;;;;;;7.45;4.70;;;13.60;99.90;;;;;;5073979;28;20111;-64
2022/07/05 00:47:16;;;;;;;7.20;4.60;;;13.60;99.90;;;;;;5072760;28;20134;-65
2022/07/05 00:49:42;;;;;;;6.85;4.22;;;13.60;99.90;;;;;;5073239;28;20072;-64
2022/07/05 00:52:10;;;;;;;6.60;4.65;;;13.60;99.90;;;;;;5072655;28;20044;-65
2022/07/05 00:54:38;;;;;;;6.03;4.32;;;13.60;99.90;;;;;;5072652;28;20040;-65
2022/07/05 00:57:05;;;;;;;7.18;4.75;;;13.60;99.90;;;;;;5071264;28;20127;-65
2022/07/05 00:59:31;;;;;;;8.02;4.40;;;13.60;99.90;;;;;;5072720;28;20089;-65
2022/07/05 01:01:57;;;;;;;7.95;4.45;;;13.60;99.90;;;;;;5072508;28;20384;-64
2022/07/05 01:04:23;;;;;;;6.15;4.35;;;13.60;99.90;;;;;;5073539;28;20122;-64
2022/07/05 01:06:50;;;;;;;9.10;4.00;;;13.60;99.90;;;;;;5072465;28;20070;-64
2022/07/05 01:09:18;;;;;;;8.38;4.63;;;13.60;99.90;;;;;;5072694;28;20442;-65
2022/07/05 01:11:48;;;;;;;8.43;5.00;;;13.50;99.90;;;;;;5072362;28;20046;-65
2022/07/05 01:14:22;;;;;;;7.70;4.20;;;13.50;99.90;;;;;;5055457;28;20501;-64
2022/07/05 01:16:49;;;;;;;6.97;4.32;;;13.50;99.90;;;;;;5072474;28;20037;-64
2022/07/05 01:19:17;;;;;;;8.13;5.28;;;13.50;99.90;;;;;;5073419;28;20397;-64
2022/07/05 01:21:44;;;;;;;7.97;5.10;;;13.40;99.90;;;;;;5055314;28;20066;-64
2022/07/05 01:24:12;;;;;;;6.90;4.60;;;13.40;99.90;;;;;;5072509;28;20094;-64
2022/07/05 01:26:39;;;;;;;9.07;6.15;;;13.40;99.90;;;;;;5073322;28;20105;-65
2022/07/05 01:29:05;;;;;;;7.93;5.00;;;13.40;99.90;;;;;;5072669;28;20044;-64
2022/07/05 01:31:31;;;;;;;9.43;4.80;;;13.30;99.90;;;;;;5071354;28;20045;-64
2022/07/05 01:33:57;;;;;;;8.95;4.70;;;13.20;99.90;;;;;;5071648;28;20137;-64
2022/07/05 01:36:23;;;;;;;7.55;4.38;;;;;;;;;;5073424;28;20040;-64
2022/07/05 01:38:50;;;;;;;8.13;4.50;;;13.30;99.90;;;;;;5054441;28;20064;-64
2022/07/05 01:41:16;;;;;;;7.82;5.18;;;;;;;;;;5071434;28;20040;-64
2022/07/05 01:43:42;;;;;;;7.72;4.95;;;13.20;99.90;;;;;;5054967;28;20043;-64
2022/07/05 01:46:10;;;;;;;10.00;4.43;;;13.20;99.90;;;;;;5071861;28;20040;-64
2022/07/05 01:48:39;;;;;;;7.93;4.50;;;13.20;99.90;;;;;;5071907;28;20430;-64
2022/07/05 01:51:13;;;;;;;8.23;4.90;;;13.20;99.90;;;;;;5071363;28;20048;-64
2022/07/05 01:53:40;;;;;;;6.50;4.50;;;13.20;99.90;;;;;;5070829;28;20040;-64
2022/07/05 01:56:06;;;;;;;6.60;4.60;;;13.10;99.90;;;;;;5071031;28;20081;-64
2022/07/05 01:58:31;;;;;;;8.93;5.20;;;13.10;99.90;;;;;;5070731;28;20070;-64
2022/07/05 02:00:58;;;;;;;10.20;4.93;;;13.10;99.90;;;;;;5071152;28;20064;-64
2022/07/05 02:03:24;;;;;;;7.65;4.68;;;13.10;99.90;;;;;;5055110;28;20044;-64
2022/07/05 02:05:52;;;;;;;7.70;4.75;;;13.00;99.90;;;;;;5071815;28;20044;-64
2022/07/05 02:08:18;;;;;;;8.25;4.10;;;13.00;99.90;;;;;;5071310;28;20048;-64
2022/07/05 02:10:44;;;;;;;7.55;4.35;;;13.00;99.90;;;;;;5070941;28;20099;-64
2022/07/05 02:13:10;;;;;;;6.90;4.47;;;13.00;99.90;;;;;;5070226;28;20071;-65
2022/07/05 02:15:38;;;;;;;6.18;4.60;;;13.00;99.90;;;;;;5071526;28;20165;-64
2022/07/05 02:18:05;;;;;;;5.57;4.05;;;13.00;99.90;;;;;;5070804;28;20063;-64
2022/07/05 02:20:31;;;;;;;6.88;4.38;;;12.90;99.90;;;;;;5070554;28;20048;-64
2022/07/05 02:22:57;;;;;;;7.35;4.78;;;12.90;99.90;;;;;;5071950;28;20072;-64
2022/07/05 02:25:24;;;;;;;7.47;4.13;;;12.90;99.90;;;;;;5071006;28;20430;-64
2022/07/05 02:27:51;;;;;;;7.57;4.50;;;12.90;99.90;;;;;;5053681;28;20087;-64
2022/07/05 02:30:17;;;;;;;7.63;4.78;;;12.90;99.90;;;;;;5072164;28;20048;-64
2022/07/05 02:32:44;;;;;;;6.78;4.40;;;12.90;99.90;;;;;;5070794;28;20043;-64
2022/07/05 02:35:11;;;;;;;7.07;4.55;;;12.80;99.90;;;;;;5071428;28;20493;-64
2022/07/05 02:37:39;;;;;;;9.57;5.47;;;12.80;99.90;;;;;;5072261;28;20114;-64
2022/07/05 02:40:07;;;;;;;7.45;4.68;;;12.80;99.90;;;;;;5070542;28;20045;-64
2022/07/05 02:42:32;;;;;;;9.23;4.82;;;13.30;99.90;;;;;;5071401;28;20044;-64
2022/07/05 02:45:00;;;;;;;8.70;4.93;;;;;;;;;;5071881;28;20037;-64
2022/07/05 02:47:26;;;;;;;6.63;4.55;;;;;;;;;;5070853;28;20040;-64
2022/07/05 02:49:53;;;;;;;7.13;4.55;;;;;;;;;;5071114;28;20461;-64
2022/07/05 02:52:18;;;;;;;8.93;4.85;;;12.70;99.90;;;;;;5070932;28;20072;-64
2022/07/05 02:54:44;;;;;;;6.85;4.20;;;12.80;99.90;;;;;;5069609;28;20079;-64
2022/07/05 02:57:09;;;;;;;6.35;4.20;;;12.80;99.90;;;;;;5073892;28;20040;-64
2022/07/05 02:59:35;;;;;;;7.45;4.03;;;12.80;99.90;;;;;;5074921;28;20048;-64
2022/07/05 03:02:01;;;;;;;6.07;4.13;;;12.70;99.90;;;;;;5074982;28;20195;-64
2022/07/05 03:04:26;;;;;;;7.05;4.65;;;12.70;99.90;;;;;;5075290;28;20397;-64
2022/07/05 03:06:52;;;;;;;6.78;4.63;;;12.70;99.90;;;;;;5075914;28;20040;-64
2022/07/05 03:09:18;;;;;;;7.95;5.20;;;;;;;;;;5073990;28;20481;-64
2022/07/05 03:11:44;;;;;;;7.78;4.25;;;;;;;;;;5075663;28;20037;-64
2022/07/05 03:14:09;;;;;;;6.40;4.53;;;12.90;99.90;;;;;;5074429;28;20042;-64
2022/07/05 03:16:35;;;;;;;7.93;4.68;;;12.60;99.90;;;;;;5075284;28;20181;-64
2022/07/05 03:19:01;;;;;;;8.10;4.78;;;12.80;99.90;;;;;;5075315;28;20075;-64
2022/07/05 03:21:26;;;;;;;7.70;5.07;;;13.40;99.90;;;;;;5057635;28;20056;-64
2022/07/05 03:23:52;;;;;;;8.27;4.35;;;12.70;99.90;;;;;;5074561;28;20048;-64
2022/07/05 03:26:18;;;;;;;7.05;4.15;;;;;;;;;;5075967;28;20382;-64
2022/07/05 03:28:46;;;;;;;7.57;4.03;;;;;;;;;;5057285;28;20133;-64
2022/07/05 03:31:12;;;;;;;8.15;5.00;;;;;;;;;;5073306;28;20073;-64
2022/07/05 03:33:38;;;;;;;6.72;4.40;;;;;;;;;;5075710;28;20040;-64
2022/07/05 03:36:04;;;;;;;7.28;3.88;;;;;;;;;;5073759;28;20051;-64
2022/07/05 03:38:30;;;;;;;7.05;4.38;;;;;;;;;;5073336;28;20044;-64
2022/07/05 03:40:56;;;;;;;8.02;4.40;;;;;;;;;;5073672;28;20056;-64
2022/07/05 03:43:22;;;;;;;7.30;4.40;;;;;;;;;;5074043;28;20044;-64
2022/07/05 03:45:48;;;;;;;8.32;5.50;;;;;;;;;;5073054;28;20044;-64
2022/07/05 03:48:14;;;;;;;6.22;3.70;;;;;;;;;;5075011;28;20123;-64
2022/07/05 03:50:40;;;;;;;7.38;4.43;;;;;;;;;;5057471;28;20445;-64
2022/07/05 03:53:06;;;;;;;7.43;3.20;;;;;;;;;;5073617;28;20123;-64
2022/07/05 03:55:32;;;;;;;6.63;4.00;;;;;;;;;;5074005;28;20079;-64
2022/07/05 03:57:58;;;;;;;8.43;3.63;;;;;;;;;;5074016;28;20040;-64
2022/07/05 04:00:24;;;;;;;6.60;4.03;;;;;;;;;;5075285;28;20052;-64
2022/07/05 04:02:50;;;;;;;7.18;3.90;;;;;;;;;;5073717;28;20040;-64
2022/07/05 04:05:16;;;;;;;7.00;3.78;;;;;;;;;;5073662;28;20560;-64
2022/07/05 04:07:53;;;;;;;5.38;3.65;;;;;;;;;;5073566;28;20496;-64
2022/07/05 04:10:19;;;;;;;8.93;3.90;;;;;;;;;;5073962;28;20133;-64
2022/07/05 04:12:45;;;;;;;7.03;3.80;;;;;;;;;;5072684;28;20043;-64
2022/07/05 04:15:11;;;;;;;6.30;3.50;;;;;;;;;;5073280;28;20051;-64
2022/07/05 04:17:54;;;;;;;5.95;3.20;;;;;;;;;;5074698;28;20497;-64
2022/07/05 04:20:24;;;;;;;7.03;3.65;;;;;;;;;;5073623;28;20188;-64
2022/07/05 04:22:51;;;;;;;6.57;3.72;;;;;;;;;;5074610;28;20115;-64
2022/07/05 04:25:17;;;;;;;6.10;3.67;;;;;;;;;;5074280;28;20497;-64
2022/07/05 04:27:44;;;;;;;7.68;4.20;;;;;;;;;;5072208;28;20401;-64
2022/07/05 04:30:11;;;;;;;6.75;3.67;;;;;;;;;;5072861;28;20072;-64
2022/07/05 04:32:39;;;;;;;5.55;3.53;;;;;;;;;;5074447;28;20064;-64
2022/07/05 04:35:06;;;;;;;6.03;2.97;;;;;;;;;;5071688;28;20481;-64
2022/07/05 04:37:32;;;;;;;6.65;3.03;;;;;;;;;;5068761;28;20496;-64
2022/07/05 04:39:58;;;;;;;7.35;3.60;;;;;;;;;;5058123;28;20401;-64
2022/07/05 04:42:24;;;;;;;5.65;3.17;;;;;;;;;;5067710;28;20041;-64
2022/07/05 04:44:50;;;;;;;5.57;3.22;;;;;;;;;;5060194;28;20059;-64
2022/07/05 04:47:16;;;;;;;6.85;3.08;;;;;;;;;;5053265;28;20493;-64
2022/07/05 04:49:42;;;;;;;9.07;3.40;;;;;;;;;;5072633;28;20500;-64
2022/07/05 04:52:07;;;;;;;8.90;3.28;;;14.30;99.90;;;;;;5072638;28;20054;-64
2022/07/05 04:54:33;;;;;;;6.57;3.35;;;14.30;99.90;;;;;;5057254;28;20041;-64
2022/07/05 04:56:59;;;;;;;5.60;2.70;;;14.30;99.90;;;;;;5052462;28;20094;-64
2022/07/05 04:59:24;;;;;;;5.30;2.63;;;14.40;99.90;;;;;;5055405;28;20409;-64
2022/07/05 05:01:50;;;;;;;8.85;3.08;;;14.40;99.90;;;;;;5062175;28;20051;-64
2022/07/05 05:04:16;;;;;;;6.75;3.25;;;14.50;99.90;;;;;;5064793;28;20048;-64
2022/07/05 05:06:41;;;;;;;7.32;2.70;;;14.60;99.90;;;;;;5063396;28;20512;-64
2022/07/05 05:09:07;;;;;;;6.28;2.72;;;14.80;99.90;;;;;;5066460;28;20410;-62
2022/07/05 05:11:33;;;;;;;7.78;2.90;;;14.90;99.90;;;;;;5068002;28;20044;-65
2022/07/05 05:13:58;;;;;;;5.55;2.70;;;15.00;99.90;;;;;;5066736;28;20039;-65
2022/07/05 05:16:24;;;;;;;8.55;2.92;;;15.20;99.90;;;;;;5051144;28;20045;-65
2022/07/05 05:18:50;;;;;;;7.57;2.53;;;15.40;99.90;;;;;;5048903;28;20049;-65
2022/07/05 05:21:41;;;;;;;7.03;3.00;;;15.60;99.90;;;;;;5065660;28;20060;-66
2022/07/05 05:24:07;;;;;;;5.93;2.92;;;15.70;99.90;;;;;;5064793;28;20047;-66
2022/07/05 05:26:33;;;;;;;6.32;2.20;;;15.70;99.90;;;;;;5067778;28;20520;-66
2022/07/05 05:28:58;;;;;;;6.03;2.33;;;15.80;99.90;;;;;;5068458;28;20127;-66
2022/07/05 05:31:24;;;;;;;6.10;2.35;;;15.90;99.90;;;;;;5063703;28;20375;-66
2022/07/05 05:33:51;;;;;;;5.45;2.42;;;;;;;;;;5044270;28;20068;-66
2022/07/05 05:36:17;;;;;;;8.07;2.42;;;;;;;;;;5048555;28;20044;-66
2022/07/05 05:38:43;;;;;;;4.90;1.95;;;;;;;;;;5057545;28;20123;-66
2022/07/05 05:41:09;;;;;;;5.00;1.77;;;;;;;;;;5068776;28;20405;-66
2022/07/05 05:43:35;;;;;;;5.47;2.13;;;;;;;;;;5068246;28;20048;-66
2022/07/05 05:46:01;;;;;;;5.78;1.95;;;;;;;;;;5060689;28;20107;-66
2022/07/05 05:48:27;;;;;;;5.18;2.17;;;;;;;;;;5059057;28;20151;-66
2022/07/05 05:50:53;;;;;;;5.50;2.22;;;;;;;;;;5048893;28;20048;-66
2022/07/05 05:53:19;;;;;;;6.88;2.60;;;17.00;99.90;;;;;;5059270;28;20040;-66
2022/07/05 05:55:45;;;;;;;5.78;1.70;;;16.70;99.90;;;;;;5046870;28;20044;-66
2022/07/05 05:58:18;;;;;;;3.35;1.55;;;16.80;99.90;;;;;;5062126;28;20052;-66
2022/07/05 06:00:48;;;;;;;5.32;2.08;;;17.00;99.90;;;;;;5062663;28;20186;-66
2022/07/05 06:03:18;;;;;;;6.78;2.20;;;17.10;99.90;;;;;;5059698;28;20051;-66
2022/07/05 06:05:43;;;;;;;5.30;1.60;;;17.20;99.90;;;;;;5068605;28;20056;-66
2022/07/05 06:08:09;;;;;;;5.35;1.80;;;17.40;99.90;;;;;;5062258;28;20037;-66
2022/07/05 06:10:35;;;;;;;7.07;1.98;;;17.40;99.90;;;;;;5065159;28;20443;-66
2022/07/05 06:13:04;;;;;;;6.38;1.60;;;17.60;99.90;;;;;;5064657;28;20513;-66
2022/07/05 06:15:30;;;;;;;4.65;1.58;;;17.70;99.90;;;;;;5064336;28;20366;-66
2022/07/05 06:17:56;;;;;;;4.80;1.48;;;17.90;99.90;;;;;;5068025;28;20102;-66
2022/07/05 06:20:26;;;;;;;5.45;1.45;;;18.00;99.90;;;;;;5039434;28;20040;-66
2022/07/05 06:22:53;;;;;;;5.88;1.38;;;18.00;99.90;;;;;;5068219;28;20087;-67
2022/07/05 06:25:19;;;;;;;7.25;1.77;;;17.80;99.90;;;;;;5063407;28;20055;-66
2022/07/05 06:27:47;;;;;;;5.05;1.90;;;17.80;99.90;;;;;;5061214;28;20410;-67
2022/07/05 06:30:15;;;;;;;8.85;2.47;;;17.80;99.90;;;;;;5060787;28;20040;-67
2022/07/05 06:32:42;;;;;;;6.38;1.25;;;17.90;99.90;;;;;;5065073;28;20116;-66
2022/07/05 06:35:09;;;;;;;6.78;1.33;;;17.90;99.90;;;;;;5061081;28;20485;-66
2022/07/05 06:37:45;;;;;;;3.45;1.15;;;17.90;99.90;;;;;;5062838;28;20040;-66
2022/07/05 06:40:13;;;;;;;9.13;1.40;;;17.90;99.90;;;;;;5049219;28;20045;-64
2022/07/05 06:42:39;;;;;;;5.05;1.50;;;17.70;99.90;;;;;;5050123;28;20052;-65
2022/07/05 06:45:09;;;;;;;6.13;1.52;;;17.70;99.90;;;;;;5056878;28;20032;-65
2022/07/05 06:47:35;;;;;;;4.25;1.27;;;17.60;99.90;;;;;;5049550;28;20106;-65
2022/07/05 06:50:02;;;;;;;3.85;1.30;;;17.60;99.90;;;;;;5054427;28;20025;-65
2022/07/05 06:52:29;;;;;;;8.25;1.73;;;17.50;99.90;;;;;;5050737;28;20036;-65
2022/07/05 06:54:54;;;;;;;4.47;1.10;;;17.50;99.90;;;;;;5063809;28;20047;-64
2022/07/05 06:57:21;;;;;;;3.63;1.20;;;17.50;99.90;;;;;;5050252;28;20116;-65
2022/07/05 06:59:48;;;;;;;9.88;1.45;;;17.60;99.90;;;;;;5060645;28;20055;-65
2022/07/05 07:02:13;;;;;;;6.57;1.48;;;17.60;99.90;;;;;;5058982;28;20124;-65
2022/07/05 07:04:39;;;;;;;6.88;1.98;;;17.60;99.90;;;;;;5057538;28;20107;-64
2022/07/05 07:09:17;;;;;;;5.05;1.23;;;17.70;99.90;;;;;;5056521;28;20466;-64
2022/07/05 07:09:51;;;;;;;8.27;1.80;;;17.80;99.90;;;;;;5055185;28;20053;-63
2022/07/05 07:12:16;;;;;;;5.07;1.58;;;18.00;99.90;;;;;;5052055;28;20424;-64
2022/07/05 07:14:42;;;;;;;7.07;1.60;;;18.20;99.90;;;;;;5050552;28;20041;-63
2022/07/05 07:17:08;;;;;;;3.55;1.17;;;18.30;99.90;;;;;;5049726;28;20044;-65
2022/07/05 07:19:33;;;;;;;4.45;1.38;;;18.20;99.90;;;;;;5054305;28;20355;-63
2022/07/05 07:21:59;;;;;;;3.13;0.90;;;18.10;99.90;;;;;;5056083;28;20068;-63
2022/07/05 07:24:25;;;;;;;4.60;1.38;;;17.90;99.90;;;;;;5064169;28;20048;-61
2022/07/05 07:27:02;;;;;;;4.72;1.38;;;17.70;99.90;;;;;;5068670;28;20041;-61
2022/07/05 07:29:29;;;;;;;4.88;1.85;;;17.60;99.90;;;;;;5069873;28;20045;-62
2022/07/05 07:31:55;;;;;;;3.00;0.93;;;17.50;99.90;;;;;;5061210;28;20422;-62
2022/07/05 07:34:21;;;;;;;4.53;1.10;;;17.40;99.90;;;;;;5056882;28;20075;-62
2022/07/05 07:36:48;;;;;;;3.38;1.27;;;17.40;99.90;;;;;;5063133;28;20063;-62
2022/07/05 07:39:13;;;;;;;4.93;1.27;;;17.40;99.90;;;;;;5065968;28;20048;-62
2022/07/05 07:41:39;;;;;;;3.95;1.00;;;17.40;99.90;;;;;;5069666;28;20093;-62
2022/07/05 07:44:05;;;;;;;5.72;1.20;;;17.40;99.90;;;;;;5073080;28;20115;-62
2022/07/05 07:46:30;;;;;;;5.80;1.25;;;17.40;99.90;;;;;;5064577;28;20064;-62
2022/07/05 07:48:56;;;;;;;4.57;1.20;;;17.40;99.90;;;;;;5073257;28;20052;-61
2022/07/05 07:51:22;;;;;;;5.57;1.42;;;17.30;99.90;;;;;;5069312;28;20085;-61
2022/07/05 07:53:47;;;;;;;10.63;1.70;;;17.30;99.90;;;;;;5058008;28;20374;-61
2022/07/05 07:56:13;;;;;;;3.05;1.17;;;17.40;99.90;;;;;;5069905;28;20040;-61
2022/07/05 07:58:39;;;;;;;3.92;1.10;;;17.70;99.90;;;;;;5062617;28;20036;-62
2022/07/05 08:01:10;;;;;;;5.20;1.77;;;17.80;99.90;;;;;;5073626;28;20086;-62
2022/07/05 08:03:36;;;;;;;6.43;1.20;;;17.90;99.90;;;;;;5071262;28;20051;-63
2022/07/05 08:06:02;;;;;;;4.20;1.35;;;17.80;99.90;;;;;;5060252;28;20328;-62
2022/07/05 08:08:28;;;;;;;3.50;1.20;;;17.70;99.90;;;;;;5067854;28;20469;-62
2022/07/05 08:10:53;;;;;;;6.10;1.50;;;17.60;99.90;;;;;;5074197;28;20068;-62
2022/07/05 08:13:19;;;;;;;6.82;1.63;;;17.60;99.90;;;;;;5073020;28;20037;-63
2022/07/05 08:15:45;;;;;;;4.72;1.30;;;17.70;99.90;;;;;;5068457;28;20067;-63
2022/07/05 08:23:39;;;;;;;5.55;1.50;;;18.10;99.90;;;;;;5069276;28;20143;-62
2022/07/05 08:26:05;;;;;;;4.88;1.10;;;18.10;99.90;;;;;;5067145;28;20127;-63
2022/07/05 08:28:30;;;;;;;5.80;1.20;;;18.10;99.90;;;;;;5067549;28;20486;-65
2022/07/05 08:30:56;;;;;;;5.97;1.67;;;18.00;99.90;;;;;;5067674;28;20491;-64
2022/07/05 08:33:24;;;;;;;3.85;1.00;;;17.90;99.90;;;;;;5056274;28;20098;-62
2022/07/05 08:35:50;;;;;;;5.22;1.10;;;17.80;99.90;;;;;;5065043;28;20045;-62
2022/07/05 08:38:15;;;;;;;4.97;1.20;;;17.80;99.90;;;;;;5073318;28;20043;-63
2022/07/05 08:40:46;;;;;;;13.13;1.90;;;17.90;99.90;;;;;;5070933;28;20039;-62
2022/07/05 08:43:14;;;;;;;2.95;1.10;;;18.00;99.90;;;;;;5054588;28;20040;-62
2022/07/05 08:45:45;;;;;;;3.60;1.40;;;18.10;99.90;;;;;;5073599;28;20036;-63
2022/07/05 08:48:12;;;;;;;3.38;1.10;;;18.20;99.90;;;;;;5067377;28;20052;-62
2022/07/05 08:50:39;;;;;;;4.13;1.15;;;18.40;99.90;;;;;;5064228;28;20047;-63
2022/07/05 08:53:05;;;;;;;3.47;1.13;;;18.60;99.90;;;;;;5064270;28;20037;-63
2022/07/05 08:55:33;;;;;;;9.43;1.30;;;18.60;99.90;;;;;;5051842;28;20040;-63
2022/07/05 08:57:59;;;;;;;7.13;1.58;;;18.60;99.90;;;;;;5067015;28;20484;-62
2022/07/05 09:00:25;;;;;;;5.05;1.17;;;18.60;99.90;;;;;;5072452;28;20044;-62
2022/07/05 09:02:52;;;;;;;3.85;1.25;;;18.50;99.90;;;;;;5071696;28;20035;-62
2022/07/05 09:05:20;;;;;;;3.10;1.30;;;18.30;99.90;;;;;;5067200;28;20087;-62
2022/07/05 09:07:59;;;;;;;5.35;1.00;;;18.20;99.90;;;;;;5067049;28;20051;-62
2022/07/05 09:10:30;;;;;;;4.55;1.63;;;18.10;99.90;;;;;;5054811;28;20048;-63
2022/07/05 09:12:57;;;;;;;10.70;1.58;;;18.10;99.90;;;;;;5066435;28;20116;-63
2022/07/05 09:15:23;;;;;;;4.57;1.30;;;18.10;99.90;;;;;;5065996;28;20083;-62
2022/07/05 09:17:49;;;;;;;5.57;1.30;;;18.10;99.90;;;;;;5069020;28;20612;-62
2022/07/05 09:20:17;;;;;;;4.28;1.13;;;18.10;99.90;;;;;;5060640;28;20123;-62
2022/07/05 09:22:53;;;;;;;4.95;1.25;;;18.20;99.90;;;;;;5068339;28;20056;-61
2022/07/05 09:25:28;;;;;;;4.28;1.38;;;18.30;99.90;;;;;;5069397;28;20106;-62
2022/07/05 09:28:02;;;;;;;4.32;1.10;;;18.60;99.90;;;;;;5063586;28;20047;-62
2022/07/05 09:30:29;;;;;;;4.68;1.15;;;18.90;99.90;;;;;;5050308;28;20067;-62
2022/07/05 09:33:05;;;;;;;5.78;1.42;;;19.20;99.90;;;;;;5060636;28;20499;-62
2022/07/05 09:35:39;;;;;;;3.85;1.30;;;19.40;99.90;;;;;;5050873;28;20109;-63
2022/07/05 09:38:06;;;;;;;5.60;1.43;;;19.30;99.90;;;;;;5049462;28;20114;-64
2022/07/05 09:40:47;;;;;;;5.28;1.25;;;19.00;99.90;;;;;;5053134;28;20245;-63
2022/07/05 09:43:15;;;;;;;5.22;1.20;;;18.80;99.90;;;;;;5055001;28;20041;-63
2022/07/05 09:45:51;;;;;;;5.80;1.48;;;18.80;99.90;;;;;;5052610;28;20055;-62
2022/07/05 09:48:17;;;;;;;7.78;1.45;;;19.00;99.90;;;;;;5070000;28;20075;-62
2022/07/05 09:50:43;;;;;;;3.80;1.20;;;19.20;99.90;;;;;;5035589;28;20138;-64
2022/07/05 09:53:11;;;;;;;4.53;1.65;;;19.20;99.90;;;;;;5054672;28;20394;-64
2022/07/05 09:55:37;;;;;;;3.60;1.13;;;19.00;99.90;;;;;;5051523;28;20047;-62
2022/07/05 09:58:03;;;;;;;3.78;1.00;;;18.90;99.90;;;;;;5048166;28;20426;-63
2022/07/05 10:00:29;;;;;;;3.63;1.20;;;19.00;99.90;;;;;;5067302;28;20131;-62
2022/07/05 10:03:00;;;;;;;4.53;1.52;;;19.20;99.90;;;;;;5070049;28;20052;-63
2022/07/05 10:05:29;;;;;;;3.28;1.25;;;19.30;99.90;;;;;;5062590;28;20119;-63
2022/07/05 10:08:01;;;;;;;4.28;1.10;;;;;;;;;;5049504;28;20410;-63
2022/07/05 10:10:32;;;;;;;5.13;1.17;;;19.80;99.90;;;;;;5063320;28;20045;-63
2022/07/05 10:13:00;;;;;;;4.25;1.10;;;19.70;99.90;;;;;;5060167;28;20090;-63
2022/07/05 10:15:28;;;;;;;5.10;1.20;;;20.00;99.60;;;;;;5050431;28;20573;-62
2022/07/05 10:17:59;;;;;;;4.65;0.93;;;20.00;98.10;;;;;;5050423;28;20048;-67
2022/07/05 10:20:36;;;;;;;4.70;0.82;;;19.80;98.00;;;;;;5048586;28;20101;-65
2022/07/05 10:23:03;;;;;;;4.05;1.25;;;19.80;98.20;;;;;;5054251;28;20053;-65
2022/07/05 10:25:30;;;;;;;3.13;0.90;;;20.00;98.80;;;;;;5056640;28;20404;-63
2022/07/05 10:27:58;;;;;;;5.47;1.40;;;20.00;99.10;;;;;;5067800;28;20052;-63
2022/07/05 10:30:24;;;;;;;5.22;1.13;;;19.80;99.20;;;;;;5054983;28;20077;-63
2022/07/05 10:32:51;;;;;;;4.10;1.08;;;19.60;99.10;;;;;;5060790;28;20041;-63
2022/07/05 10:35:17;;;;;;;3.47;0.85;;;19.40;99.70;;;;;;5061398;28;20033;-62
2022/07/05 10:37:44;;;;;;;4.28;1.10;;;19.10;99.50;;;;;;5048103;28;20535;-63
2022/07/05 10:40:11;;;;;;;3.15;0.98;;;;;;;;;;5057384;28;20417;-63
2022/07/05 10:42:41;;;;;;;4.18;1.00;;;;;;;;;;5068287;28;20048;-66
2022/07/05 10:45:22;;;;;;;2.95;1.05;;;;;;;;;;5068717;28;20114;-66
2022/07/05 10:48:08;;;;;;;3.88;0.80;;;;;;;;;;5068667;28;20438;-66
2022/07/05 10:50:49;;;;;;;2.22;0.80;;;;;;;;;;5069406;28;20197;-65
2022/07/05 10:53:32;;;;;;;6.82;1.67;;;;;;;;;;5049921;28;20399;-67
2022/07/05 10:56:04;;;;;;;3.25;0.85;;;;;;;;;;5046987;28;20390;-69
2022/07/05 10:58:30;;;;;;;3.17;0.80;;;;;;;;;;5049638;28;20182;-64
2022/07/05 11:01:18;;;;;;;3.67;0.98;;;20.40;98.20;;;;;;5048031;28;20513;-64
2022/07/05 11:04:01;;;;;;;3.50;0.90;;;20.50;97.10;;;;;;5048023;28;20127;-63
2022/07/05 11:06:29;;;;;;;4.78;1.20;;;20.40;97.40;;;;;;5031698;28;20041;-62
2022/07/05 11:09:02;;;;;;;3.28;1.05;;;20.00;99.20;;;;;;5047643;28;20045;-63
2022/07/05 11:11:29;;;;;;;4.82;1.50;;;19.60;99.90;;;;;;5049447;28;20486;-64
2022/07/05 11:13:58;;;;;;;5.25;1.30;;;19.30;99.90;;;;;;5068035;28;20044;-64
2022/07/05 11:16:26;;;;;;;3.35;1.13;;;19.10;99.90;;;;;;5069585;28;20044;-64
2022/07/05 11:19:04;;;;;;;4.40;1.38;;;18.90;99.90;;;;;;5066439;28;20040;-64
2022/07/05 11:21:30;;;;;;;6.97;1.60;;;18.80;99.90;;;;;;5065760;28;20056;-63
2022/07/05 11:24:21;;;;;;;4.95;1.40;;;18.70;99.90;;;;;;5071110;28;20493;-63
2022/07/05 11:26:54;;;;;;;6.18;1.75;;;18.80;99.90;;;;;;5052749;28;20127;-63
2022/07/05 11:29:43;;;;;;;7.07;1.63;;;18.80;99.90;;;;;;5051204;28;20053;-64
2022/07/05 11:32:13;;;;;;;4.88;1.40;;;18.90;99.90;;;;;;5051206;28;20049;-64
2022/07/05 11:34:41;;;;;;;4.40;1.20;;;18.90;99.90;;;;;;5052964;28;20059;-66
2022/07/05 11:37:26;;;;;;;5.75;1.40;;;18.90;99.90;;;;;;5050117;28;20037;-65
2022/07/05 11:40:07;;;;;;;9.18;1.40;;;19.00;99.90;;;;;;5054461;28;20452;-65
2022/07/05 11:42:42;;;;;;;6.85;1.73;;;19.10;99.90;;;;;;5066883;28;20052;-65
2022/07/05 11:45:08;;;;;;;5.15;1.50;;;19.00;99.90;;;;;;5064800;28;20132;-66
2022/07/05 11:47:35;;;;;;;4.32;1.08;;;18.90;99.90;;;;;;5055525;28;20527;-66
2022/07/05 11:50:01;;;;;;;6.18;1.27;;;18.80;99.90;;;;;;5050073;28;20426;-66
2022/07/05 11:52:31;;;;;;;4.63;1.80;;;18.80;99.90;;;;;;5063873;28;20048;-65
2022/07/05 11:54:58;;;;;;;3.95;1.38;;;18.60;99.90;;;;;;5049981;28;20040;-64
2022/07/05 11:57:24;;;;;;;6.25;1.50;;;18.80;99.90;;;;;;5062653;28;20095;-65
2022/07/05 11:59:50;;;;;;;6.63;1.60;;;18.80;99.90;;;;;;5052318;28;20052;-66
2022/07/05 12:02:17;;;;;;;5.78;1.50;;;18.60;99.90;;;;;;5063812;28;20135;-65
2022/07/05 12:04:54;;;;;;;5.88;1.40;;;18.50;99.90;;;;;;5070303;28;20130;-66
2022/07/05 12:07:29;;;;;;;4.72;1.50;;;18.40;99.90;;;;;;5055821;28;20083;-67
2022/07/05 12:12:42;;;;;;;;;;;19.10;99.90;;;;;;5068322;28;20045;-64
2022/07/05 12:15:15;;;;;;;4.90;1.70;;;19.00;99.90;;;;;;5070319;28;20353;-65
2022/07/05 12:17:43;;;;;;;4.45;1.30;;;18.80;99.90;;;;;;5069228;28;20048;-64
2022/07/05 12:20:11;;;;;;;4.93;1.13;;;18.80;99.90;;;;;;5064436;28;20045;-63
2022/07/05 12:22:45;;;;;;;5.78;1.30;;;19.00;99.90;;;;;;5060401;28;20517;-64
2022/07/05 12:25:13;;;;;;;3.67;1.08;;;19.20;99.90;;;;;;5059273;28;20128;-63
2022/07/05 12:27:41;;;;;;;4.28;1.33;;;19.40;99.90;;;;;;5052236;28;20554;-64
2022/07/05 12:30:09;;;;;;;4.28;1.17;;;19.50;99.90;;;;;;5050371;28;20049;-63
2022/07/05 12:32:56;;;;;;;3.75;1.38;;;19.60;99.90;;;;;;5051187;28;20343;-63
2022/07/05 12:35:43;;;;;;;7.55;1.60;;;19.40;99.90;;;;;;5054340;28;20040;-64
2022/07/05 12:38:14;;;;;;;5.05;1.63;;;19.30;99.90;;;;;;5053829;28;20137;-64
2022/07/05 12:40:41;;;;;;;3.80;1.30;;;19.10;99.90;;;;;;5058966;28;20045;-65
2022/07/05 12:43:09;;;;;;;4.05;1.35;;;;;;;;;;5068814;28;20465;-64
2022/07/05 12:45:35;;;;;;;4.43;1.30;;;;;;;;;;5070860;28;20052;-65
2022/07/05 12:48:03;;;;;;;4.40;1.17;;;;;;;;;;5069691;28;20135;-63
2022/07/05 12:50:43;;;;;;;4.28;1.48;;;18.90;99.90;;;;;;5061090;28;20048;-64
2022/07/05 12:59:03;;;;;;;6.00;1.08;;;19.20;99.90;;;;;;5059173;28;20136;-64
2022/07/05 13:01:31;;;;;;;6.13;1.15;;;19.40;99.90;;;;;;5069128;28;20111;-64
2022/07/05 13:04:09;;;;;;;4.47;1.23;;;19.60;99.90;;;;;;5063598;28;20049;-65
2022/07/05 13:06:51;;;;;;;5.40;1.02;;;19.70;99.90;;;;;;5063849;28;20404;-63
2022/07/05 13:09:38;;;;;;;9.90;1.70;;;19.60;99.30;;;;;;5058868;28;20501;-67
2022/07/05 13:12:15;;;;;;;3.55;1.02;;;19.40;99.90;;;;;;5052025;28;20436;-66
2022/07/05 13:14:46;;;;;;;2.92;1.20;;;19.40;99.90;;;;;;5063566;28;20041;-66
2022/07/05 13:17:13;;;;;;;4.50;1.27;;;19.50;99.90;;;;;;5059672;28;20056;-66
2022/07/05 13:19:40;;;;;;;3.13;1.08;;;19.60;99.00;;;;;;5070659;28;20397;-66
2022/07/05 13:22:07;;;;;;;3.08;1.23;;;19.60;98.90;;;;;;5068163;28;20510;-66
2022/07/05 13:24:33;;;;;;;7.05;1.63;;;19.70;98.60;;;;;;5071043;28;20040;-67
2022/07/05 13:26:59;;;;;;;3.33;1.33;;;19.60;99.10;;;;;;5070476;28;20182;-67